Time;durP1;ratioP1;P1;durP2;ratioP2;P2;SDS_P1;SDS_P2;PMS_P1;PMS_P2;Temp;Humidity;BMP_temperature;BMP_pressure;BME280_temperature;BME280_humidity;BME280_pressure;Samples;Min_cycle;Max_cycle;Signal;HPM_P1;HPM_P2
2023/08/03 00:09:35;;;;;;;5.28;2.15;;;16.40;99.90;;;;;;20840881;28;20110;-40
2023/08/03 00:19:36;;;;;;;11.18;2.50;;;16.50;99.90;;;;;;20844170;28;20041;-40
2023/08/03 00:29:37;;;;;;;11.63;3.15;;;16.60;99.90;;;;;;20841066;28;20038;-40
2023/08/03 00:39:38;;;;;;;6.00;1.80;;;16.70;99.90;;;;;;20838263;28;20057;-41
2023/08/03 00:49:39;;;;;;;11.23;2.78;;;16.60;99.90;;;;;;20836374;28;20037;-41
2023/08/03 00:59:43;;;;;;;10.18;3.20;;;16.50;99.90;;;;;;20833451;28;20400;-41
2023/08/03 01:09:44;;;;;;;6.88;2.05;;;16.60;99.90;;;;;;20839249;28;20033;-41
2023/08/03 01:19:45;;;;;;;4.72;1.73;;;16.70;99.90;;;;;;20838243;28;20033;-41
2023/08/03 01:29:46;;;;;;;5.00;2.28;;;16.70;99.90;;;;;;20834195;28;20098;-41
2023/08/03 01:39:47;;;;;;;4.88;2.88;;;16.70;99.90;;;;;;20834140;28;20090;-41
2023/08/03 01:49:48;;;;;;;6.65;3.40;;;16.70;99.90;;;;;;20828759;28;20361;-41
2023/08/03 01:59:49;;;;;;;11.57;4.32;;;16.60;99.90;;;;;;20831194;28;20450;-40
2023/08/03 02:09:50;;;;;;;7.22;4.10;;;16.60;99.90;;;;;;20830970;28;20037;-40
2023/08/03 02:19:51;;;;;;;12.30;4.63;;;16.60;99.90;;;;;;20827783;28;20041;-40
2023/08/03 02:29:53;;;;;;;8.85;4.13;;;16.70;99.90;;;;;;20827046;28;20044;-40
2023/08/03 02:39:54;;;;;;;10.23;5.00;;;16.70;99.90;;;;;;20824497;28;20075;-40
2023/08/03 02:49:55;;;;;;;16.25;5.10;;;16.70;99.90;;;;;;20827317;28;20101;-41
2023/08/03 02:59:56;;;;;;;12.48;4.80;;;16.60;99.90;;;;;;20832850;28;20609;-40
2023/08/03 03:09:57;;;;;;;12.63;4.00;;;16.60;99.90;;;;;;20833072;28;20049;-40
2023/08/03 03:19:58;;;;;;;7.90;3.65;;;16.60;99.90;;;;;;20812171;28;20029;-40
2023/08/03 03:29:59;;;;;;;5.88;3.55;;;16.60;99.90;;;;;;20830649;28;20110;-41
2023/08/03 03:40:01;;;;;;;8.55;3.92;;;16.60;99.90;;;;;;20836796;28;20094;-40
2023/08/03 03:50:02;;;;;;;9.18;4.18;;;16.60;99.90;;;;;;20837683;28;20029;-41
2023/08/03 04:00:05;;;;;;;7.57;3.97;;;16.60;99.90;;;;;;20836742;28;20492;-41
2023/08/03 04:10:06;;;;;;;11.00;3.22;;;16.50;99.90;;;;;;20833596;28;20455;-41
2023/08/03 04:20:08;;;;;;;7.13;3.05;;;16.60;99.90;;;;;;20816780;28;20540;-40
2023/08/03 04:30:11;;;;;;;10.32;3.22;;;16.50;99.90;;;;;;20838816;28;20581;-41
2023/08/03 04:40:12;;;;;;;11.50;2.13;;;16.50;99.90;;;;;;20837243;28;20048;-41
2023/08/03 04:50:13;;;;;;;7.22;1.85;;;16.40;99.90;;;;;;20849861;28;20041;-41
2023/08/03 05:00:14;;;;;;;14.45;2.35;;;16.50;99.90;;;;;;20845330;28;20086;-40
2023/08/03 05:10:15;;;;;;;11.57;3.40;;;16.50;99.90;;;;;;20842147;28;20604;-40
2023/08/03 05:20:17;;;;;;;14.68;3.17;;;16.50;99.90;;;;;;20848826;28;20048;-41
2023/08/03 05:30:18;;;;;;;15.52;3.20;;;16.60;99.90;;;;;;20851204;28;20053;-40
2023/08/03 05:40:20;;;;;;;14.43;3.05;;;16.50;99.90;;;;;;20837434;28;20067;-40
2023/08/03 05:50:22;;;;;;;7.63;2.10;;;16.50;99.90;;;;;;20846040;28;20494;-41
2023/08/03 06:00:28;;;;;;;16.77;2.65;;;16.50;99.90;;;;;;20842852;28;20964;-40
2023/08/03 06:10:29;;;;;;;13.90;2.97;;;16.50;99.90;;;;;;20836505;28;20380;-40
2023/08/03 06:20:31;;;;;;;12.40;2.60;;;16.70;99.90;;;;;;20842884;28;20616;-40
2023/08/03 06:30:32;;;;;;;8.07;2.10;;;16.80;99.90;;;;;;20833031;28;20044;-40
2023/08/03 06:40:34;;;;;;;9.80;1.98;;;16.90;99.90;;;;;;20837568;28;20501;-41
2023/08/03 06:50:36;;;;;;;8.95;2.08;;;16.80;99.90;;;;;;20824574;28;20045;-40
2023/08/03 07:00:40;;;;;;;14.32;2.97;;;16.80;99.90;;;;;;20830761;28;20742;-41
2023/08/03 07:10:42;;;;;;;10.02;2.58;;;16.80;99.90;;;;;;20800733;28;20134;-41
2023/08/03 07:20:43;;;;;;;7.30;2.80;;;17.00;99.90;;;;;;20842452;28;20041;-40
2023/08/03 07:30:44;;;;;;;10.88;3.00;;;17.20;99.90;;;;;;20813076;28;20083;-40
2023/08/03 07:40:45;;;;;;;8.35;2.67;;;17.50;99.90;;;;;;20809275;28;20447;-40
2023/08/03 07:50:46;;;;;;;12.32;5.07;;;17.50;99.90;;;;;;20803578;28;20492;-41
2023/08/03 08:00:47;;;;;;;14.70;4.40;;;17.60;99.90;;;;;;20825797;28;20045;-40
2023/08/03 08:10:54;;;;;;;14.00;4.22;;;17.80;99.90;;;;;;20798222;28;20053;-41
2023/08/03 08:20:56;;;;;;;11.88;4.35;;;17.90;99.90;;;;;;20705856;28;99228;-40
2023/08/03 08:30:57;;;;;;;8.05;3.65;;;18.10;99.90;;;;;;20677507;28;104343;-40
2023/08/03 08:41:05;;;;;;;5.80;3.92;;;18.10;99.90;;;;;;20689860;28;30869;-40
2023/08/03 08:51:08;;;;;;;7.93;2.80;;;18.00;99.90;;;;;;20829017;28;20101;-40
2023/08/03 09:01:10;;;;;;;6.70;2.97;;;18.40;99.90;;;;;;20823379;28;20443;-40
2023/08/03 09:11:11;;;;;;;7.10;2.78;;;18.70;99.90;;;;;;20831489;28;20484;-41
2023/08/03 09:21:17;;;;;;;6.25;1.95;;;19.10;99.90;;;;;;20804337;28;20676;-40
2023/08/03 09:31:24;;;;;;;4.65;2.55;;;19.40;94.30;;;;;;20838633;28;20480;-41
2023/08/03 09:41:36;;;;;;;9.20;3.97;;;18.40;99.90;;;;;;20825149;28;20098;-41
2023/08/03 09:51:42;;;;;;;5.72;2.10;;;19.00;99.90;;;;;;20833075;28;20660;-40
2023/08/03 10:01:44;;;;;;;6.72;1.92;;;19.40;99.90;;;;;;20824561;28;20040;-41
2023/08/03 10:11:49;;;;;;;8.05;2.30;;;18.30;99.90;;;;;;20823420;28;20048;-41
2023/08/03 10:21:50;;;;;;;6.65;1.83;;;18.60;99.90;;;;;;20794115;28;21564;-41
2023/08/03 10:31:55;;;;;;;6.60;4.03;;;18.80;99.90;;;;;;20820249;28;20839;-41
2023/08/03 10:42:18;;;;;;;5.03;1.60;;;18.90;99.90;;;;;;20826875;28;20044;-41
2023/08/03 10:52:24;;;;;;;4.68;1.77;;;18.70;99.90;;;;;;20826571;28;21520;-41
2023/08/03 11:02:30;;;;;;;6.30;1.87;;;18.20;99.90;;;;;;20808256;28;20141;-41
2023/08/03 11:12:32;;;;;;;8.57;2.00;;;18.30;99.90;;;;;;20822793;28;20506;-41
2023/08/03 11:22:33;;;;;;;5.85;1.42;;;18.70;99.90;;;;;;20810397;28;20041;-41
2023/08/03 11:32:35;;;;;;;3.60;0.90;;;18.50;99.90;;;;;;20811907;28;20037;-41
2023/08/03 11:42:38;;;;;;;8.02;1.80;;;18.70;95.80;;;;;;20773610;28;20107;-41
2023/08/03 11:52:39;;;;;;;6.65;1.85;;;18.50;15.40;;;;;;20615204;28;78943;-41
2023/08/03 12:02:45;;;;;;;7.53;1.65;;;18.30;34.90;;;;;;20671628;28;20041;-42
2023/08/03 12:22:00;;;;;;;6.85;1.77;;;18.70;28.40;;;;;;20599784;27;78060;-41
2023/08/03 12:32:01;;;;;;;6.90;2.00;;;18.90;1.00;;;;;;20641174;28;20034;-41
2023/08/03 12:42:02;;;;;;;5.00;2.30;;;19.10;1.00;;;;;;20605695;28;21190;-41
2023/08/03 12:52:02;;;;;;;5.70;2.33;;;19.30;1.00;;;;;;20645238;28;20034;-41
2023/08/03 13:02:03;;;;;;;9.50;2.55;;;19.70;1.00;;;;;;20598003;28;20455;-41
2023/08/03 13:12:05;;;;;;;11.57;2.63;;;19.40;1.00;;;;;;20657226;28;20497;-41
2023/08/03 13:22:05;;;;;;;7.22;2.30;;;19.50;1.00;;;;;;20725991;28;20036;-42
2023/08/03 13:32:06;;;;;;;9.57;2.63;;;19.80;1.00;;;;;;20683119;28;20042;-42
2023/08/03 13:42:07;;;;;;;6.00;1.73;;;19.50;1.00;;;;;;20659874;28;20026;-42
2023/08/03 13:52:07;;;;;;;7.78;2.35;;;19.60;1.00;;;;;;20652316;28;20037;-42
2023/08/03 14:02:10;;;;;;;12.23;2.57;;;19.60;1.00;;;;;;20659307;28;20179;-43
2023/08/03 14:12:10;;;;;;;9.80;1.98;;;20.00;1.00;;;;;;20654624;28;21342;-42
2023/08/03 14:22:11;;;;;;;15.65;2.38;;;20.20;1.00;;;;;;20616452;28;20049;-42
2023/08/03 14:32:12;;;;;;;11.48;2.38;;;20.20;1.00;;;;;;20664554;28;20580;-42
2023/08/03 14:42:12;;;;;;;6.20;1.55;;;19.80;1.00;;;;;;20649020;28;20053;-42
2023/08/03 14:52:13;;;;;;;8.52;2.08;;;19.40;1.00;;;;;;20673160;28;20049;-42
2023/08/03 15:02:13;;;;;;;7.88;1.95;;;19.20;1.00;;;;;;20647074;28;21052;-42
2023/08/03 15:12:14;;;;;;;7.72;1.40;;;19.00;1.00;;;;;;20654543;28;20029;-42
2023/08/03 15:22:14;;;;;;;8.10;2.13;;;18.90;1.00;;;;;;20643869;28;20042;-43
2023/08/03 15:32:15;;;;;;;5.55;1.40;;;18.90;1.00;;;;;;20662066;28;20123;-43
2023/08/03 15:42:15;;;;;;;6.78;1.30;;;18.70;1.00;;;;;;20696707;28;20041;-42
2023/08/03 15:52:16;;;;;;;7.88;1.35;;;18.40;1.00;;;;;;20689499;28;20564;-43
2023/08/03 16:02:17;;;;;;;5.23;1.30;;;18.50;1.00;;;;;;20677060;28;20088;-43
2023/08/03 16:12:17;;;;;;;5.93;1.25;;;18.40;1.00;;;;;;20655567;28;20461;-42
2023/08/03 16:22:18;;;;;;;3.65;1.10;;;18.30;1.00;;;;;;20663685;28;20038;-42
2023/08/03 16:32:18;;;;;;;7.25;1.48;;;17.80;1.00;;;;;;20668281;28;20026;-42
2023/08/03 16:42:19;;;;;;;4.23;1.23;;;17.80;1.00;;;;;;20671225;28;20029;-42
2023/08/03 16:52:20;;;;;;;6.68;1.30;;;17.60;1.00;;;;;;20660538;28;20722;-42
2023/08/03 17:02:21;;;;;;;5.28;1.23;;;17.70;1.00;;;;;;20665827;28;20038;-43
2023/08/03 17:12:21;;;;;;;7.38;1.58;;;17.70;1.00;;;;;;20667476;28;20032;-42
2023/08/03 17:22:22;;;;;;;4.10;1.23;;;17.90;1.00;;;;;;20661852;28;20042;-42
2023/08/03 17:32:23;;;;;;;6.07;2.65;;;17.80;1.00;;;;;;20636215;28;20031;-43
2023/08/03 17:42:23;;;;;;;4.03;1.35;;;17.80;1.00;;;;;;20688055;28;20853;-41
2023/08/03 17:52:24;;;;;;;9.88;4.10;;;17.70;1.00;;;;;;20669680;28;20034;-42
2023/08/03 18:02:26;;;;;;;10.70;4.35;;;17.80;1.00;;;;;;20686467;28;20103;-42
2023/08/03 18:12:26;;;;;;;6.53;1.90;;;17.80;1.00;;;;;;20679662;28;20030;-42
2023/08/03 18:22:27;;;;;;;8.60;2.47;;;17.60;1.00;;;;;;20680638;28;20088;-42
2023/08/03 18:32:28;;;;;;;7.85;2.25;;;17.60;1.00;;;;;;20671297;28;20046;-43
2023/08/03 18:42:28;;;;;;;5.05;1.88;;;17.60;1.00;;;;;;20675935;28;20057;-42
2023/08/03 18:52:29;;;;;;;6.82;2.35;;;17.70;1.00;;;;;;20669918;28;20506;-42
2023/08/03 19:02:29;;;;;;;6.57;2.63;;;17.60;1.00;;;;;;20653330;28;20472;-42
2023/08/03 19:12:30;;;;;;;7.32;2.42;;;17.70;1.00;;;;;;20666003;28;21038;-42
2023/08/03 19:22:31;;;;;;;6.38;2.30;;;17.50;1.00;;;;;;20672111;28;20072;-42
2023/08/03 19:32:31;;;;;;;7.45;2.53;;;17.20;1.00;;;;;;20683115;28;20033;-42
2023/08/03 19:42:32;;;;;;;7.25;2.10;;;16.90;1.00;;;;;;20667893;28;20041;-42
2023/08/03 19:52:32;;;;;;;8.25;2.03;;;16.70;1.00;;;;;;20667142;28;20046;-42
2023/08/03 20:02:33;;;;;;;6.72;1.92;;;16.70;1.00;;;;;;20669534;28;20512;-42
2023/08/03 20:12:34;;;;;;;9.02;2.47;;;16.70;1.00;;;;;;20648452;28;20038;-42
2023/08/03 20:22:34;;;;;;;7.47;2.95;;;16.80;1.00;;;;;;20647842;28;20053;-42
2023/08/03 20:32:35;;;;;;;7.15;2.30;;;16.70;1.00;;;;;;20647424;28;20050;-42
2023/08/03 20:42:35;;;;;;;5.88;2.50;;;16.60;1.00;;;;;;20664015;28;20035;-42
2023/08/03 20:52:36;;;;;;;5.18;2.38;;;16.60;1.00;;;;;;20660938;28;20408;-42
2023/08/03 21:02:36;;;;;;;7.75;2.40;;;16.60;1.00;;;;;;20660046;28;20092;-42
2023/08/03 21:12:37;;;;;;;7.03;2.33;;;16.50;1.00;;;;;;20682301;28;20042;-42
2023/08/03 21:22:38;;;;;;;9.38;2.15;;;16.30;11.10;;;;;;20697534;28;20034;-42
2023/08/03 21:32:41;;;;;;;8.23;2.63;;;16.20;14.60;;;;;;20689335;28;20915;-43
2023/08/03 21:42:41;;;;;;;4.93;2.08;;;16.20;20.20;;;;;;20672131;28;20482;-42
2023/08/03 21:52:42;;;;;;;7.60;2.72;;;16.20;24.50;;;;;;20683730;28;20054;-42
2023/08/03 22:02:43;;;;;;;7.28;2.60;;;16.30;33.30;;;;;;20671447;28;20041;-42
2023/08/03 22:12:50;;;;;;;4.70;2.27;;;16.20;23.00;;;;;;20659871;28;20053;-42
2023/08/03 22:22:51;;;;;;;7.72;2.60;;;16.00;34.60;;;;;;20660194;28;20780;-42
2023/08/03 22:32:51;;;;;;;6.15;2.40;;;15.80;48.50;;;;;;20663367;28;20125;-42
2023/08/03 22:42:52;;;;;;;9.50;2.03;;;15.70;65.40;;;;;;20660785;28;20050;-42
2023/08/03 22:52:52;;;;;;;6.57;2.47;;;15.70;80.40;;;;;;20657642;28;20034;-42
2023/08/03 23:02:53;;;;;;;6.78;3.58;;;15.60;88.00;;;;;;20660397;28;20026;-42
2023/08/03 23:12:53;;;;;;;8.57;2.15;;;15.60;70.30;;;;;;20659396;28;20053;-41
2023/08/03 23:22:54;;;;;;;8.13;2.60;;;15.40;73.80;;;;;;20656555;28;20481;-42
2023/08/03 23:32:55;;;;;;;7.15;2.83;;;15.40;78.20;;;;;;20655542;28;20493;-41
2023/08/03 23:42:55;;;;;;;9.75;3.03;;;15.30;98.50;;;;;;20652791;28;20087;-41
2023/08/03 23:52:56;;;;;;;6.03;2.40;;;15.20;99.90;;;;;;20652625;28;20559;-41
